KCPS/CPS METAR and TAF weather

Enter ICAO airport designator
Station Type Date Time Source
KCPS METAR 2021/05/12 00:53 UTC NOAA

KCPS 120053Z 06005KT 10SM BKN120 13/03 A3029 RMK AO2 SLP257 T01280033


Station Type Date Time Source
KCPS Decoded METAR 2021/05/12 00:53 UTC NOAA

ST LOUIS DOWNTOWN AIRPORT, IL, United States (KCPS) 38-34N 090-09W 126M
May 11, 2021 - 08:53 PM EDT / 2021.05.12 0053 UTC
Wind: from the ENE (060 degrees) at 6 MPH (5 KT):0
Visibility: 10 mile(s):0
Sky conditions: mostly cloudy
Temperature: 55.0 F (12.8 C)
Dew Point: 37.9 F (3.3 C)
Relative Humidity: 52%
Pressure (altimeter): 30.29 in. Hg (1025 hPa)
ob: KCPS 120053Z 06005KT 10SM BKN120 13/03 A3029 RMK AO2 SLP257 T01280033
cycle: 1

Station Type Date Time Source
KCPS TAF 2021/05/11 18:30 UTC NOAA

TAF KCPS 111727Z 1118/1218 05011G20KT P6SM BKN035
FM112000 06012G21KT P6SM BKN045
FM120000 05009KT P6SM SCT050 BKN100
FM121500 07010G18KT P6SM SKC

Example: see airport list